createdAt,value
2017-09-12T00:00:39.359Z,67.47
2017-09-12T00:01:19.105Z,67.79
2017-09-12T00:01:59.691Z,67.41
2017-09-12T00:02:40.219Z,67.69
2017-09-12T00:03:20.759Z,67.57
2017-09-12T00:04:01.315Z,67.38
2017-09-12T00:04:41.888Z,67.66
2017-09-12T00:05:22.452Z,67.66
2017-09-12T00:06:03.008Z,67.76
2017-09-12T00:06:43.586Z,67.57
2017-09-12T00:07:24.110Z,67.85
2017-09-12T00:08:04.648Z,68.14
2017-09-12T00:08:45.189Z,67.95
2017-09-12T00:09:25.759Z,67.95
2017-09-12T00:10:06.346Z,68.05
2017-09-12T00:10:46.898Z,68.05
2017-09-12T00:11:27.448Z,68.05
2017-09-12T00:12:08.029Z,67.95
2017-09-12T00:12:48.659Z,68.24
2017-09-12T00:13:29.226Z,68.05
2017-09-12T00:14:09.789Z,67.95
2017-09-12T00:14:50.405Z,67.95
2017-09-12T00:15:30.981Z,67.95
2017-09-12T00:16:11.540Z,68.14
2017-09-12T00:16:52.117Z,67.85
2017-09-12T00:17:32.680Z,67.85
2017-09-12T00:18:13.228Z,67.66
2017-09-12T00:18:53.781Z,67.76
2017-09-12T00:19:34.343Z,67.85
2017-09-12T00:20:14.925Z,67.66
2017-09-12T00:20:55.499Z,67.76
2017-09-12T00:21:36.055Z,67.66
2017-09-12T00:22:16.618Z,67.66
2017-09-12T00:22:57.175Z,67.76
2017-09-12T00:23:37.758Z,67.85
2017-09-12T00:24:18.323Z,67.76
2017-09-12T00:24:58.902Z,67.85
2017-09-12T00:25:39.507Z,68.14
2017-09-12T00:26:20.037Z,68.14
2017-09-12T00:27:00.599Z,68.24
2017-09-12T00:27:41.154Z,68.05
2017-09-12T00:28:21.715Z,68.24
2017-09-12T00:29:02.274Z,67.95
2017-09-12T00:29:42.828Z,68.05
2017-09-12T00:30:23.365Z,68.14
2017-09-12T00:31:03.934Z,68.33
2017-09-12T00:31:44.489Z,68.24
2017-09-12T00:32:25.066Z,68.24
2017-09-12T00:33:05.612Z,68.05
2017-09-12T00:33:46.178Z,68.24
2017-09-12T00:34:26.736Z,68.05
2017-09-12T00:35:07.301Z,68.14
2017-09-12T00:35:47.880Z,68.24
2017-09-12T00:36:28.437Z,68.14
2017-09-12T00:37:09.000Z,68.24
2017-09-12T00:37:49.572Z,68.24
2017-09-12T00:38:30.128Z,68.14
2017-09-12T00:39:10.698Z,68.81
2017-09-12T00:39:51.307Z,68.62
2017-09-12T00:40:31.857Z,68.62
2017-09-12T00:41:12.434Z,68.62
2017-09-12T00:41:53.001Z,68.62
2017-09-12T00:42:33.557Z,68.81
2017-09-12T00:43:14.124Z,68.72
2017-09-12T00:43:54.689Z,68.81
2017-09-12T00:44:35.253Z,68.72
2017-09-12T00:45:15.813Z,68.62
2017-09-12T00:45:56.365Z,69.01
2017-09-12T00:46:36.924Z,68.62
2017-09-12T00:47:17.499Z,68.62
2017-09-12T00:47:58.057Z,68.52
2017-09-12T00:48:38.607Z,69.39
2017-09-12T00:49:19.160Z,69.48
2017-09-12T00:49:59.703Z,69.01
2017-09-12T00:50:40.254Z,69.29
2017-09-12T00:51:20.809Z,69.39
2017-09-12T00:52:01.401Z,69.2
2017-09-12T00:52:41.971Z,69.39
2017-09-12T00:53:22.542Z,69.01
2017-09-12T00:54:03.104Z,69.29
2017-09-12T00:54:43.678Z,69.1
2017-09-12T00:55:24.248Z,69.2
2017-09-12T00:56:04.813Z,69.2
2017-09-12T00:56:45.376Z,69.29
2017-09-12T00:57:25.947Z,69.29
2017-09-12T00:58:06.521Z,69.01
2017-09-12T00:58:47.085Z,69.29
2017-09-12T00:59:27.656Z,69.39
2017-09-12T01:00:08.221Z,69.1
2017-09-12T01:00:48.872Z,69.29
2017-09-12T01:01:29.448Z,69.58
2017-09-12T01:02:10.010Z,69.01
2017-09-12T01:02:50.576Z,69.29
2017-09-12T01:03:31.127Z,69.1
2017-09-12T01:04:11.682Z,69.2
2017-09-12T01:04:52.245Z,69.39
2017-09-12T01:05:32.779Z,69.68
2017-09-12T01:06:13.384Z,69.29
2017-09-12T01:06:53.892Z,69.1
2017-09-12T01:07:34.452Z,69.01
2017-09-12T01:08:15.006Z,68.91
2017-09-12T01:08:55.535Z,69.1
2017-09-12T01:09:36.087Z,69.2
2017-09-12T01:10:16.639Z,69.29
2017-09-12T01:10:57.213Z,69.29
2017-09-12T01:11:37.764Z,69.33
2017-09-12T01:12:18.321Z,68.66
2017-09-12T01:12:58.893Z,68.85
2017-09-12T01:13:39.451Z,68.85
2017-09-12T01:14:20.008Z,69.13
2017-09-12T01:15:00.568Z,68.27
2017-09-12T01:15:41.147Z,68.37
2017-09-12T01:16:21.706Z,68.27
2017-09-12T01:17:02.271Z,68.27
2017-09-12T01:17:42.843Z,68.27
2017-09-12T01:18:23.400Z,68.18
2017-09-12T01:19:03.958Z,69.04
2017-09-12T01:19:44.524Z,68.27
2017-09-12T01:20:25.092Z,68.27
2017-09-12T01:21:05.654Z,68.27
2017-09-12T01:21:46.256Z,68.46
2017-09-12T01:22:26.800Z,68.37
2017-09-12T01:23:07.359Z,68.27
2017-09-12T01:23:47.918Z,68.18
2017-09-12T01:24:28.494Z,68.37
2017-09-12T01:25:09.073Z,68.27
2017-09-12T01:25:49.637Z,68.66
2017-09-12T01:26:30.190Z,68.56
2017-09-12T01:27:10.753Z,68.18
2017-09-12T01:27:51.315Z,68.27
2017-09-12T01:28:31.868Z,68.46
2017-09-12T01:29:12.447Z,68.08
2017-09-12T01:29:53.032Z,68.46
2017-09-12T01:30:33.590Z,68.46
2017-09-12T01:31:14.158Z,68.56
2017-09-12T01:31:54.714Z,68.08
2017-09-12T01:32:35.270Z,68.21
2017-09-12T01:33:15.829Z,67.92
2017-09-12T01:33:56.394Z,67.92
2017-09-12T01:34:36.968Z,67.99
2017-09-12T01:35:17.541Z,68.18
2017-09-12T01:35:58.105Z,67.99
2017-09-12T01:36:38.675Z,67.99
2017-09-12T01:37:19.241Z,68.12
2017-09-12T01:37:59.802Z,68.18
2017-09-12T01:38:40.368Z,68.56
2017-09-12T01:39:20.939Z,68.27
2017-09-12T01:40:01.504Z,68.27
2017-09-12T01:40:42.067Z,68.08
2017-09-12T01:41:22.633Z,68.4
2017-09-12T01:42:03.195Z,67.99
2017-09-12T01:42:43.764Z,68.27
2017-09-12T01:43:24.333Z,68.27
2017-09-12T01:44:04.902Z,68.18
2017-09-12T01:44:45.475Z,68.18
2017-09-12T01:45:26.028Z,68.08
2017-09-12T01:46:06.593Z,68.08
2017-09-12T01:46:47.148Z,67.79
2017-09-12T01:47:27.718Z,68.18
2017-09-12T01:48:08.304Z,68.08
2017-09-12T01:48:48.866Z,68.18
2017-09-12T01:49:29.428Z,68.27
2017-09-12T01:50:09.984Z,68.37
2017-09-12T01:50:50.564Z,68.08
2017-09-12T01:51:31.148Z,68.46
2017-09-12T01:52:11.708Z,68.66
2017-09-12T01:52:52.286Z,68.66
2017-09-12T01:53:32.842Z,68.46
2017-09-12T01:54:13.416Z,68.85
2017-09-12T01:54:54.007Z,68.85
2017-09-12T01:55:34.528Z,68.85
2017-09-12T01:56:15.105Z,68.75
2017-09-12T01:56:55.666Z,68.66
2017-09-12T01:57:36.235Z,69.33
2017-09-12T01:58:16.795Z,69.33
2017-09-12T01:58:57.366Z,69.13
2017-09-12T01:59:37.926Z,69.33
2017-09-12T02:00:18.484Z,69.33
2017-09-12T02:00:59.043Z,69.23
2017-09-12T02:01:39.609Z,69.42
2017-09-12T02:02:20.182Z,68.95
2017-09-12T02:03:00.741Z,69.42
2017-09-12T02:03:41.304Z,68.95
2017-09-12T02:04:21.900Z,68.98
2017-09-12T02:05:02.454Z,69.42
2017-09-12T02:05:43.037Z,68.95
2017-09-12T02:06:23.618Z,69.42
2017-09-12T02:07:04.189Z,69.33
2017-09-12T02:07:44.756Z,69.33
2017-09-12T02:08:25.316Z,69.13
2017-09-12T02:09:05.889Z,69.33
2017-09-12T02:09:46.458Z,69.13
2017-09-12T02:10:27.016Z,69.13
2017-09-12T02:11:07.580Z,68.95
2017-09-12T02:11:48.135Z,69.13
2017-09-12T02:12:28.727Z,69.33
2017-09-12T02:13:09.308Z,69.71
2017-09-12T02:13:49.868Z,69.74
2017-09-12T02:14:30.424Z,69.13
2017-09-12T02:15:10.983Z,69.17
2017-09-12T02:15:51.528Z,69.13
2017-09-12T09:01:01.754Z,85.58
2017-09-12T09:01:42.452Z,86.31
2017-09-12T09:02:23.023Z,85.16
2017-09-12T09:03:03.630Z,82.94
2017-09-12T09:03:44.234Z,82.46
2017-09-12T09:04:24.760Z,83.72
2017-09-12T09:05:05.352Z,78.81
2017-09-12T09:05:45.949Z,80.54
2017-09-12T09:06:26.628Z,81.98
2017-09-12T09:07:07.265Z,82.46
2017-09-12T09:07:48.829Z,78.33
2017-09-12T09:08:29.972Z,82.08
2017-09-12T09:09:11.172Z,83.08
2017-09-12T09:09:53.598Z,83.28
2017-09-12T09:10:34.291Z,81.73
2017-09-12T09:11:17.821Z,79.9
2017-09-12T09:11:58.389Z,76.78
2017-09-12T09:12:38.992Z,77.26
2017-09-12T09:13:19.741Z,79
2017-09-12T09:14:00.341Z,79.67
2017-09-12T09:14:44.508Z,81.12
2017-09-12T09:15:25.812Z,83.72
2017-09-12T09:16:06.291Z,84.19
2017-09-12T09:16:46.942Z,84.77
2017-09-12T09:17:27.548Z,82.65
2017-09-12T09:18:08.346Z,82.5
2017-09-12T09:18:49.523Z,86.16
2017-09-12T09:19:29.576Z,87.41
2017-09-12T09:20:10.082Z,86.83
2017-09-12T09:20:53.167Z,86.78
2017-09-12T09:22:39.986Z,82.74
2017-09-12T09:23:20.530Z,83.22
2017-09-12T09:24:01.065Z,81.2
2017-09-12T09:24:41.750Z,81.87
2017-09-12T09:25:22.273Z,81.01
2017-09-12T09:26:02.819Z,78.59
2017-09-12T09:26:43.610Z,81.58
2017-09-12T09:27:24.334Z,82.26
2017-09-12T09:28:07.499Z,81.58
2017-09-12T09:28:47.967Z,83.08
2017-09-12T09:29:29.133Z,82.02
2017-09-12T09:30:09.632Z,78.46
2017-09-12T09:30:50.229Z,75.57
2017-09-12T09:31:31.138Z,81.35
2017-09-12T09:32:11.750Z,82.31
2017-09-12T09:32:52.208Z,81.39
2017-09-12T09:33:32.816Z,79.81
2017-09-12T09:34:13.818Z,79.13
2017-09-12T09:34:54.287Z,82.5
2017-09-12T09:35:34.959Z,82.5
2017-09-12T09:36:15.477Z,80.96
2017-09-12T09:36:56.012Z,80.87
2017-09-12T09:37:36.627Z,77.88
2017-09-12T09:38:17.309Z,77.88
2017-09-12T09:38:57.815Z,74.99
2017-09-12T09:39:38.449Z,79.23
2017-09-12T09:40:18.935Z,77.11
2017-09-12T09:40:59.525Z,77.69
2017-09-12T09:41:40.295Z,80.71
2017-09-12T09:42:20.868Z,80.33
2017-09-12T09:43:01.483Z,81.87
2017-09-12T09:43:42.056Z,81.01
2017-09-12T09:44:22.746Z,78.69
2017-09-12T09:45:03.297Z,78.56
2017-09-12T09:45:43.839Z,77.78
2017-09-12T09:46:24.463Z,77.31
2017-09-12T09:47:04.999Z,78.17
2017-09-12T09:47:45.698Z,78.56
2017-09-12T09:48:26.460Z,79.43
2017-09-12T09:49:07.046Z,74.51
2017-09-12T09:49:47.633Z,79.13
2017-09-12T09:50:28.248Z,83.12
2017-09-12T09:51:08.755Z,73.36
2017-09-12T09:51:49.313Z,75.67
2017-09-12T09:52:29.897Z,82.06
2017-09-12T09:53:10.606Z,82.83
2017-09-12T09:53:51.206Z,71.66
2017-09-12T09:54:31.754Z,77.73
2017-09-12T09:55:12.268Z,82.45
2017-09-12T09:55:52.982Z,84.12
2017-09-12T09:56:33.880Z,78.79
2017-09-12T09:57:14.426Z,80.37
2017-09-12T09:57:55.085Z,73.43
2017-09-12T09:58:35.727Z,79.21
2017-09-12T09:59:16.307Z,73.91
2017-09-12T09:59:56.858Z,76.42
2017-09-12T10:00:37.455Z,73.43
2017-09-12T10:01:18.076Z,78.63
2017-09-12T10:01:58.608Z,82.29
2017-09-12T10:02:39.458Z,77
2017-09-12T10:03:20.093Z,75.74
2017-09-12T10:04:00.769Z,78.06
2017-09-12T10:04:41.315Z,81.81
2017-09-12T10:05:21.869Z,82.39
2017-09-12T10:06:02.457Z,81.62
2017-09-12T10:06:42.985Z,80.08
2017-09-12T10:07:23.541Z,81.91
2017-09-12T10:08:04.047Z,82.29
2017-09-12T10:08:44.580Z,80.66
2017-09-12T10:09:25.173Z,81.62
2017-09-12T10:10:05.923Z,83.64
2017-09-12T10:10:46.516Z,82.87
2017-09-12T10:11:27.196Z,81.81
2017-09-12T10:12:07.719Z,82.59
2017-09-12T10:12:48.268Z,82.1
2017-09-12T10:13:28.994Z,80.46
2017-09-12T10:14:09.515Z,82.29
2017-09-12T10:14:50.008Z,74.3
2017-09-12T10:15:30.561Z,78.25
2017-09-12T10:16:11.130Z,78.86
2017-09-12T10:16:51.662Z,79.83
2017-09-12T10:17:32.195Z,77.51
2017-09-12T10:18:12.758Z,78.83
2017-09-12T10:18:53.256Z,78.83
2017-09-12T10:19:33.849Z,77
2017-09-12T10:20:14.381Z,76.32
2017-09-12T10:20:54.891Z,76.32
2017-09-12T10:21:35.604Z,75.84
2017-09-12T10:22:16.150Z,78.25
2017-09-12T10:22:56.788Z,79.79
2017-09-12T10:23:37.406Z,76.9
2017-09-12T10:24:17.922Z,76.93
2017-09-12T10:24:58.434Z,76.55
2017-09-12T10:25:38.982Z,76.32
2017-09-12T10:26:19.469Z,74.88
2017-09-12T10:27:00.045Z,76.61
2017-09-12T10:27:40.601Z,75.4
2017-09-12T10:28:21.123Z,78.96
2017-09-12T10:29:01.661Z,73.66
2017-09-12T10:29:42.234Z,78
2017-09-12T10:30:22.785Z,75.01
2017-09-12T10:31:03.296Z,75.68
2017-09-12T10:31:43.863Z,76.84
2017-09-12T10:32:24.404Z,72.5
2017-09-12T10:33:05.076Z,74.78
2017-09-12T10:33:45.799Z,74.78
2017-09-12T10:34:26.497Z,77.19
2017-09-12T10:35:07.044Z,79.98
2017-09-12T10:35:47.572Z,80.56
2017-09-12T10:36:28.138Z,79.79
2017-09-12T10:37:08.744Z,80.56
2017-09-12T10:37:49.443Z,80.94
2017-09-12T10:38:30.188Z,81.52
2017-09-12T10:39:10.667Z,78.06
2017-09-12T10:39:51.244Z,80.76
2017-09-12T10:40:31.720Z,79.41
2017-09-12T10:41:12.258Z,83.84
2017-09-12T10:41:53.053Z,84.99
2017-09-12T10:42:33.614Z,83.07
2017-09-12T10:43:14.149Z,77.86
2017-09-12T10:43:54.685Z,79.75
2017-09-12T10:44:35.265Z,76.57
2017-09-12T10:45:15.784Z,80.94
2017-09-12T10:45:56.373Z,82.87
2017-09-12T10:46:36.912Z,82.39
2017-09-12T10:47:17.428Z,78.63
2017-09-12T10:47:57.960Z,81.24
2017-09-12T10:48:38.604Z,79.98
2017-09-12T10:49:19.167Z,84.42
2017-09-12T10:49:59.746Z,84.03
2017-09-12T10:50:40.365Z,83.55
2017-09-12T10:51:20.881Z,84.12
2017-09-12T10:52:01.628Z,83.26
2017-09-12T10:52:42.567Z,85.77
2017-09-12T10:53:23.396Z,81.04
2017-09-12T10:54:03.924Z,77
2017-09-12T10:54:44.552Z,82.24
2017-09-12T10:55:25.383Z,82.34
2017-09-12T10:56:05.953Z,82.82
2017-09-12T10:56:46.603Z,83.4
2017-09-12T10:57:27.312Z,79.64
2017-09-12T10:58:07.704Z,77.9
2017-09-12T10:58:48.253Z,82.24
2017-09-12T10:59:29.810Z,77.71
2017-09-12T11:00:10.375Z,78.29
2017-09-12T11:00:50.912Z,82.28
2017-09-12T11:01:31.476Z,77.07
2017-09-12T11:02:12.474Z,80.93
2017-09-12T11:02:52.963Z,80.06
2017-09-12T11:03:33.629Z,75.34
2017-09-12T11:04:16.307Z,75.24
2017-09-12T11:04:56.912Z,77.55
2017-09-12T11:05:37.483Z,73.79
2017-09-12T11:06:18.087Z,74.89
2017-09-12T11:07:00.206Z,74.31
2017-09-12T11:49:10.119Z,82.89
2017-09-12T11:49:51.525Z,82.41
2017-09-12T11:50:32.053Z,82.21
2017-09-12T11:51:12.647Z,82.31
2017-09-12T11:51:53.203Z,82.31
2017-09-12T11:52:33.786Z,82.7
2017-09-12T11:53:14.629Z,82.5
2017-09-12T12:09:40.563Z,81.25
2017-09-12T12:13:33.582Z,79.71
2017-09-12T12:14:16.090Z,78.94
2017-09-12T12:14:56.597Z,78.56
2017-09-12T12:15:37.254Z,79.71
2017-09-12T12:16:17.735Z,78.56
2017-09-12T12:16:58.344Z,78.36
2017-09-12T12:19:18.563Z,78.59
2017-09-12T12:19:59.129Z,77.34
2017-09-12T12:20:39.693Z,77.83
2017-09-12T12:21:20.245Z,78.4
2017-09-12T12:22:00.823Z,78.98
2017-09-12T12:22:41.400Z,79.94
2017-09-12T12:23:21.938Z,80.52
2017-09-12T12:24:02.507Z,80.23
2017-09-12T12:24:53.269Z,80.91
2017-09-12T12:25:34.066Z,79.85
2017-09-12T12:26:14.448Z,79.75
2017-09-12T12:26:54.997Z,78.79
2017-09-12T12:27:35.696Z,78.59
2017-09-12T12:28:16.251Z,78.31
2017-09-12T12:28:56.817Z,78.21
2017-09-12T12:29:38.229Z,76.57
2017-09-12T12:30:18.782Z,76.09
2017-09-12T12:30:59.356Z,73.97
2017-09-12T12:31:39.903Z,74.45
2017-09-12T12:32:20.439Z,74.2
2017-09-12T12:33:01.011Z,74.49
2017-09-12T12:33:41.670Z,74.62
2017-09-12T12:34:22.205Z,74.4
2017-09-12T12:35:02.763Z,75.2
2017-09-12T12:35:43.570Z,75.3
2017-09-12T12:36:24.143Z,74.52
2017-09-12T12:37:04.694Z,74.1
2017-09-12T12:37:45.270Z,73.62
2017-09-12T12:38:25.829Z,73.33
2017-09-12T12:39:06.398Z,73.72
2017-09-12T12:39:46.948Z,73.53
2017-09-12T12:40:27.519Z,74.01
2017-09-12T12:41:08.034Z,73.39
2017-09-12T12:41:48.587Z,73.72
2017-09-12T12:42:29.163Z,74.4
2017-09-12T12:43:09.723Z,74.01
2017-09-12T12:43:50.296Z,74.2
2017-09-12T12:44:30.875Z,74.58
2017-09-12T12:45:11.443Z,73.82
2017-09-12T12:45:52.001Z,73.43
2017-09-12T12:46:32.514Z,73.72
2017-09-12T12:47:13.097Z,72.95
2017-09-12T12:47:53.661Z,72.66
2017-09-12T12:48:34.207Z,71.5
2017-09-12T12:49:14.787Z,71.98
2017-09-12T12:49:55.334Z,71.89
2017-09-12T12:50:36.655Z,71.7
2017-09-12T12:51:16.436Z,71.25
2017-09-12T12:51:56.990Z,70.54
2017-09-12T12:52:37.580Z,70.15
2017-09-12T12:53:18.137Z,69.57
2017-09-12T12:53:58.745Z,70.96
2017-09-12T12:54:39.288Z,70.86
2017-09-12T12:55:19.848Z,70.09
2017-09-12T12:56:00.384Z,70
2017-09-12T12:56:40.959Z,69.9
2017-09-12T12:57:21.520Z,70.57
2017-09-12T12:58:02.111Z,69.8
2017-09-12T12:58:42.664Z,69.51
2017-09-12T12:59:23.237Z,68.74
2017-09-12T13:00:03.885Z,68.35
2017-09-12T13:00:44.430Z,68.93
2017-09-12T13:01:25.002Z,69.71
2017-09-12T13:02:05.549Z,68.87
2017-09-12T13:02:46.135Z,68.87
2017-09-12T13:03:26.647Z,67.97
2017-09-12T13:04:07.192Z,68.19
2017-09-12T13:04:47.873Z,68.26
2017-09-12T13:05:28.743Z,68.26
2017-09-12T13:06:09.250Z,67.88
2017-09-12T13:06:49.759Z,68.07
2017-09-12T13:07:30.305Z,67.71
2017-09-12T13:08:10.876Z,67.2
2017-09-12T13:08:51.443Z,66.75
2017-09-12T13:09:32.002Z,66.75
2017-09-12T13:10:12.569Z,65.78
2017-09-12T13:10:53.111Z,66.46
2017-09-12T13:11:33.659Z,66.17
2017-09-12T13:12:14.260Z,66.85
2017-09-12T13:12:54.758Z,66.46
2017-09-12T13:13:35.388Z,65.82
2017-09-12T13:14:15.926Z,65.82
2017-09-12T13:14:56.674Z,65.78
2017-09-12T13:15:37.138Z,66.46
2017-09-12T13:16:17.703Z,66.59
2017-09-12T13:16:58.307Z,66.85
2017-09-12T13:17:38.878Z,66.27
2017-09-12T13:18:19.415Z,65.3
2017-09-12T13:18:59.955Z,64.34
2017-09-12T13:19:40.532Z,65.59
2017-09-12T13:20:21.055Z,66.17
2017-09-12T13:21:01.602Z,65.3
2017-09-12T13:21:42.187Z,64.05
2017-09-12T13:22:22.795Z,63.63
2017-09-12T13:23:03.331Z,65.47
2017-09-12T13:23:43.871Z,64.31
2017-09-12T13:24:24.424Z,65.08
2017-09-12T13:25:04.981Z,65.95
2017-09-12T13:25:45.548Z,65.66
2017-09-12T13:26:26.176Z,65.37
2017-09-12T13:27:06.730Z,65.37
2017-09-12T13:27:47.459Z,64.5
2017-09-12T13:28:28.022Z,65.24
2017-09-12T13:29:08.612Z,65.14
2017-09-12T13:29:49.239Z,65.33
2017-09-12T13:30:29.795Z,65.33
2017-09-12T13:31:10.338Z,65.81
2017-09-12T13:31:50.863Z,65.3
2017-09-12T13:32:31.464Z,65.14
2017-09-12T13:33:12.032Z,65.5
2017-09-12T13:33:52.572Z,67.16
2017-09-12T13:34:33.133Z,68.23
2017-09-12T13:35:13.675Z,69.19
2017-09-12T13:35:54.227Z,70.15
2017-09-12T13:36:34.788Z,71.08
2017-09-12T13:37:15.354Z,70.21
2017-09-12T13:37:55.907Z,70.7
2017-09-12T13:38:36.440Z,69.93
2017-09-12T13:39:16.997Z,71.18
2017-09-12T13:39:57.601Z,71.76
2017-09-12T13:40:38.164Z,72.05
2017-09-12T13:41:18.725Z,73.97
2017-09-12T13:41:59.347Z,75.23
2017-09-12T13:42:39.952Z,76.15
2017-09-12T13:43:20.461Z,76.92
2017-09-12T13:44:01.011Z,77.75
2017-09-12T13:44:41.573Z,77.56
2017-09-12T13:45:22.133Z,77.65
2017-09-12T13:46:02.670Z,77.94
2017-09-12T13:46:43.216Z,78.33
2017-09-12T13:47:23.763Z,77.42
2017-09-12T13:48:04.329Z,78.03
2017-09-12T13:48:44.862Z,78.03
2017-09-12T13:49:25.441Z,78.9
2017-09-12T13:50:05.977Z,78.77
2017-09-12T13:50:46.531Z,79.63
2017-09-12T13:51:27.077Z,79.15
2017-09-12T13:52:07.628Z,79.38
2017-09-12T13:52:48.141Z,79.1
2017-09-12T13:53:28.728Z,79.28
2017-09-12T13:54:09.268Z,78.81
2017-09-12T13:54:49.822Z,79
2017-09-12T13:55:30.421Z,78.61
2017-09-12T13:56:10.990Z,77.84
2017-09-12T13:56:51.579Z,77.84
2017-09-12T13:57:32.119Z,77.46
2017-09-12T13:58:12.656Z,77.08
2017-09-12T13:58:53.203Z,77.11
2017-09-12T13:59:33.723Z,76.73
2017-09-12T14:00:14.252Z,77.5
2017-09-12T14:00:54.801Z,77.31
2017-09-12T14:01:35.401Z,77.5
2017-09-12T14:02:15.876Z,76.73
2017-09-12T14:02:56.468Z,76.25
2017-09-12T14:03:37.015Z,76.63
2017-09-12T14:04:17.565Z,76.63
2017-09-12T14:04:58.200Z,76.63
2017-09-12T14:05:38.741Z,77.01
2017-09-12T14:06:19.317Z,76.25
2017-09-12T14:06:59.876Z,77.4
2017-09-12T14:07:40.451Z,78.65
2017-09-12T14:08:21.026Z,78.56
2017-09-12T14:09:01.574Z,77.56
2017-09-12T14:09:42.167Z,77.36
2017-09-12T14:10:22.750Z,77.46
2017-09-12T14:11:03.310Z,76.56
2017-09-12T14:11:43.823Z,76.56
2017-09-12T14:12:24.384Z,77.61
2017-09-12T14:13:04.919Z,77.51
2017-09-12T14:13:45.447Z,77.51
2017-09-12T14:14:25.984Z,77.13
2017-09-12T14:15:06.558Z,77.51
2017-09-12T14:15:47.214Z,78.09
2017-09-12T14:16:27.729Z,78.86
2017-09-12T14:17:08.325Z,80.3
2017-09-12T14:17:49.814Z,79.44
2017-09-12T14:18:30.318Z,78.77
2017-09-12T14:19:10.993Z,78.09
2017-09-12T14:19:51.594Z,77.9
2017-09-12T14:20:32.148Z,78.48
2017-09-12T14:21:12.692Z,77.61
2017-09-12T14:21:53.256Z,79.15
2017-09-12T14:22:33.780Z,78.09
2017-09-12T14:23:14.344Z,77.81
2017-09-12T14:23:54.898Z,77.51
2017-09-12T14:24:35.453Z,78.58
2017-09-12T14:25:15.992Z,78.86
2017-09-12T14:25:56.516Z,78.86
2017-09-12T14:26:37.062Z,78.58
2017-09-12T14:27:17.780Z,78.48
2017-09-12T14:27:58.355Z,77.51
2017-09-12T14:28:39.355Z,77.13
2017-09-12T14:29:19.888Z,78.09
2017-09-12T14:30:00.429Z,78.92
2017-09-12T14:30:40.989Z,79.21
2017-09-12T14:31:21.549Z,78.25
2017-09-12T14:32:02.106Z,78.06
2017-09-12T14:32:42.695Z,78.53
2017-09-12T14:33:23.274Z,79.02
2017-09-12T14:34:03.828Z,78.34
2017-09-12T14:34:44.378Z,78.06
2017-09-12T14:35:24.947Z,78.73
2017-09-12T14:36:05.525Z,78.96
2017-09-12T14:36:46.086Z,78.77
2017-09-12T14:37:26.681Z,78.58
2017-09-12T14:38:07.219Z,77.81
2017-09-12T14:38:47.780Z,77.42
2017-09-12T14:39:28.357Z,77.23
2017-09-12T14:40:08.891Z,77.51
2017-09-12T14:40:49.456Z,78.28
2017-09-12T14:41:30.006Z,77.33
2017-09-12T14:42:10.606Z,78
2017-09-12T14:42:51.157Z,77.61
2017-09-12T14:43:31.708Z,77.04
2017-09-12T14:44:12.273Z,77.42
2017-09-12T14:44:52.819Z,77.61
2017-09-12T14:45:33.419Z,76.75
2017-09-12T14:46:13.944Z,76.65
2017-09-12T14:46:54.527Z,77.51
2017-09-12T14:47:35.121Z,77.51
2017-09-12T14:48:15.742Z,76.94
2017-09-12T14:48:56.311Z,76.84
2017-09-12T14:49:36.906Z,77.33
2017-09-12T14:50:17.454Z,76.56
2017-09-12T14:50:58.131Z,76.46
2017-09-12T14:51:38.825Z,75.79
2017-09-12T14:52:19.331Z,76.56
2017-09-12T14:52:59.840Z,76.46
2017-09-12T14:53:40.460Z,76.84
2017-09-12T14:54:21.047Z,76.84
2017-09-12T14:55:01.659Z,76.36
2017-09-12T14:55:42.166Z,76.07
2017-09-12T14:56:22.787Z,75.88
2017-09-12T14:57:03.888Z,75.69
2017-09-12T14:57:44.456Z,75.98
2017-09-12T14:58:25.153Z,76.01
2017-09-12T14:59:05.668Z,76.17
2017-09-12T14:59:46.227Z,76.98
2017-09-12T15:00:26.879Z,76.4
2017-09-12T15:01:07.441Z,76.59
2017-09-12T15:01:47.972Z,75.05
2017-09-12T15:02:28.532Z,75.05
2017-09-12T15:03:09.643Z,74.48
2017-09-12T15:03:50.191Z,73.8
2017-09-12T15:04:30.706Z,73.71
2017-09-12T15:05:11.267Z,73.71
2017-09-12T15:05:51.811Z,74.38
2017-09-12T15:06:32.345Z,74.09
2017-09-12T15:07:12.931Z,74.38
2017-09-12T15:07:54.377Z,75.05
2017-09-12T15:08:34.866Z,74.76
2017-09-12T15:09:15.560Z,75.44
2017-09-12T15:09:56.100Z,76.5
2017-09-12T15:10:36.774Z,76.26
2017-09-12T15:11:17.294Z,77.36
2017-09-12T15:11:57.881Z,77.81
2017-09-12T15:12:38.519Z,77.17
2017-09-12T15:13:19.132Z,77.36
2017-09-12T15:13:59.614Z,78.38
2017-09-12T15:14:40.198Z,77.71
2017-09-12T15:15:20.819Z,78.19
2017-09-12T15:16:01.326Z,78.96
2017-09-12T15:16:41.889Z,78.63
2017-09-12T15:17:22.458Z,79.21
2017-09-12T15:18:03.213Z,78.73
2017-09-12T15:18:43.724Z,79.5
2017-09-12T15:19:24.307Z,79.69
2017-09-12T15:20:04.837Z,79.21
2017-09-12T15:20:45.390Z,80.07
2017-09-12T15:21:25.970Z,79.88
2017-09-12T15:22:06.496Z,80.55
2017-09-12T15:22:47.136Z,79.69
2017-09-12T15:23:27.710Z,80.17
2017-09-12T15:24:08.233Z,79.79
2017-09-12T15:24:48.710Z,80.27
2017-09-12T15:25:29.536Z,81.04
2017-09-12T15:26:10.016Z,81.99
2017-09-12T15:26:50.610Z,81.81
2017-09-12T15:27:31.172Z,82.09
2017-09-12T15:28:11.753Z,82.19
2017-09-12T15:28:52.306Z,82.48
2017-09-12T15:29:32.895Z,82.86
2017-09-12T15:30:13.950Z,81.99
2017-09-12T15:30:54.486Z,82.76
2017-09-12T15:31:35.957Z,82.38
2017-09-12T15:32:16.735Z,82.29
2017-09-12T15:32:57.265Z,83.06
2017-09-12T15:33:40.149Z,83.53
2017-09-12T15:34:20.403Z,82.67
2017-09-12T15:35:00.971Z,82.38
2017-09-12T15:35:41.573Z,82.76
2017-09-12T15:36:22.087Z,82.82
2017-09-12T15:37:02.635Z,83.4
2017-09-12T15:37:43.188Z,83.78
2017-09-12T15:38:23.905Z,83.4
2017-09-12T15:39:04.434Z,82.76
2017-09-12T15:39:45.289Z,82.96
2017-09-12T15:40:25.584Z,83.59
2017-09-12T15:41:06.296Z,83.69
2017-09-12T15:41:46.873Z,83.2
2017-09-12T15:42:27.422Z,83.59
2017-09-12T15:43:07.968Z,82.53
2017-09-12T15:43:48.534Z,82.63
2017-09-12T15:44:29.143Z,83.01
2017-09-12T15:45:10.036Z,83.11
2017-09-12T15:45:50.531Z,83.25
2017-09-12T15:46:31.102Z,83.53
2017-09-12T15:47:11.640Z,83.49
2017-09-12T15:47:52.250Z,83.11
2017-09-12T15:48:32.788Z,83.34
2017-09-12T15:49:13.368Z,83.06
2017-09-12T15:49:54.030Z,82.96
2017-09-12T15:50:34.590Z,83.53
2017-09-12T15:51:15.102Z,83.73
2017-09-12T15:51:55.751Z,83.34
2017-09-12T15:52:36.240Z,82.48
2017-09-12T15:53:16.808Z,82.67
2017-09-12T15:53:57.314Z,82.86
2017-09-12T15:54:37.889Z,83.06
2017-09-12T15:55:18.432Z,84.3
2017-09-12T15:55:58.968Z,83.92
2017-09-12T15:56:39.519Z,83.34
2017-09-12T15:57:20.111Z,83.63
2017-09-12T15:58:00.650Z,82.38
2017-09-12T15:58:41.201Z,82.29
2017-09-12T15:59:21.776Z,82.48
2017-09-12T16:00:02.436Z,81.61
2017-09-12T16:00:42.842Z,82.38
2017-09-12T16:01:23.396Z,82.09
2017-09-12T16:02:03.999Z,81.04
2017-09-12T16:02:44.485Z,81.04
2017-09-12T16:03:25.064Z,81.04
2017-09-12T16:04:05.558Z,80.94
2017-09-12T16:04:46.118Z,79.88
2017-09-12T16:05:26.676Z,79.6
2017-09-12T16:06:07.263Z,79.6
2017-09-12T16:06:48.678Z,79.02
2017-09-12T16:07:29.239Z,78.73
2017-09-12T16:08:09.736Z,78.83
2017-09-12T16:08:50.353Z,80.17
2017-09-12T16:09:30.862Z,79.21
2017-09-12T16:10:11.447Z,78.5
2017-09-12T16:10:52.843Z,78.44
2017-09-12T16:11:33.439Z,79.02
2017-09-12T16:12:13.982Z,78.25
2017-09-12T16:12:54.548Z,78.06
2017-09-12T16:13:35.114Z,78.3
2017-09-12T16:14:15.756Z,78.06
2017-09-12T16:14:56.279Z,78.21
2017-09-12T16:15:36.832Z,78.21
2017-09-12T16:16:17.344Z,77.25
2017-09-12T16:16:57.867Z,77.15
2017-09-12T16:17:38.420Z,78.21
2017-09-12T16:18:19.077Z,77.92
2017-09-12T16:18:59.764Z,77.15
2017-09-12T16:19:40.325Z,77.15
2017-09-12T16:20:20.805Z,77.34
2017-09-12T16:21:02.747Z,76.48
2017-09-12T16:21:43.293Z,76.86
2017-09-12T16:22:23.855Z,77.15
2017-09-12T16:23:04.430Z,76.39
2017-09-12T16:23:44.966Z,76.57
2017-09-12T16:24:25.537Z,77.34
2017-09-12T16:25:06.751Z,77.15
2017-09-12T16:25:46.688Z,78.5
2017-09-12T16:26:27.279Z,77.53
2017-09-12T16:27:07.815Z,77.44
2017-09-12T16:27:52.521Z,76.39
2017-09-12T16:28:33.098Z,76.09
2017-09-12T16:29:13.680Z,76.48
2017-09-12T16:29:54.278Z,76.48
2017-09-12T16:30:34.875Z,76.57
2017-09-12T16:31:15.346Z,77.25
2017-09-12T16:31:55.855Z,77.15
2017-09-12T16:32:36.480Z,77.25
2017-09-12T16:33:17.074Z,77.53